Time;durP1;ratioP1;P1;durP2;ratioP2;P2;SDS_P1;SDS_P2;PMS_P1;PMS_P2;Temp;Humidity;BMP_temperature;BMP_pressure;BME280_temperature;BME280_humidity;BME280_pressure;Samples;Min_cycle;Max_cycle;Signal;HPM_P1;HPM_P2
2022/07/27 00:01:05;;;;;;;2.60;0.90;;;18.50;55.70;;;;;;4969661;28;20522;-75
2022/07/27 00:03:32;;;;;;;2.10;1.10;;;18.40;55.40;;;;;;4971445;28;20412;-74
2022/07/27 00:05:59;;;;;;;3.53;1.40;;;18.40;54.90;;;;;;4969531;28;20526;-72
2022/07/27 00:08:26;;;;;;;4.13;1.30;;;18.30;55.70;;;;;;4970818;28;20466;-74
2022/07/27 00:10:54;;;;;;;3.15;1.10;;;18.30;55.80;;;;;;4969501;28;20420;-73
2022/07/27 00:13:21;;;;;;;4.32;1.30;;;18.20;56.30;;;;;;4970797;28;20423;-76
2022/07/27 00:15:48;;;;;;;2.33;1.30;;;18.20;56.70;;;;;;4970013;28;20443;-74
2022/07/27 00:18:15;;;;;;;3.03;1.42;;;18.20;56.60;;;;;;4970951;28;20781;-70
2022/07/27 00:20:42;;;;;;;4.20;1.50;;;18.10;56.70;;;;;;4968571;28;20428;-76
2022/07/27 00:23:09;;;;;;;3.10;1.50;;;18.10;56.10;;;;;;4970393;28;20428;-73
2022/07/27 00:25:36;;;;;;;3.67;1.60;;;18.00;56.60;;;;;;4970681;28;20416;-73
2022/07/27 00:28:05;;;;;;;4.22;1.40;;;17.90;56.90;;;;;;4970702;28;20420;-74
2022/07/27 00:30:32;;;;;;;3.47;1.30;;;17.90;57.00;;;;;;4969191;28;20502;-75
2022/07/27 00:32:59;;;;;;;4.40;1.40;;;17.90;57.40;;;;;;4970438;28;20422;-74
2022/07/27 00:35:26;;;;;;;5.63;1.70;;;17.90;57.10;;;;;;4969399;28;20436;-73
2022/07/27 00:37:53;;;;;;;3.75;1.60;;;17.80;56.80;;;;;;4969313;28;20420;-73
2022/07/27 00:40:20;;;;;;;2.60;1.20;;;17.80;58.00;;;;;;4969427;28;20442;-73
2022/07/27 00:42:47;;;;;;;3.42;1.60;;;17.70;58.30;;;;;;4975877;28;20501;-75
2022/07/27 00:45:15;;;;;;;4.28;1.60;;;17.70;58.00;;;;;;4989632;28;20417;-75
2022/07/27 00:47:42;;;;;;;5.57;1.10;;;17.70;58.20;;;;;;4989424;28;20437;-72
2022/07/27 00:50:09;;;;;;;2.37;1.30;;;17.70;58.10;;;;;;4988704;28;20505;-74
2022/07/27 00:52:37;;;;;;;2.63;1.30;;;17.60;58.50;;;;;;4989116;28;20418;-73
2022/07/27 00:55:05;;;;;;;3.53;1.50;;;17.60;58.70;;;;;;4989100;28;20438;-71
2022/07/27 00:57:32;;;;;;;3.67;1.27;;;17.60;58.60;;;;;;4989263;28;21088;-74
2022/07/27 00:59:59;;;;;;;2.90;1.20;;;17.60;59.00;;;;;;4988020;28;21206;-72
2022/07/27 01:02:27;;;;;;;3.28;1.70;;;17.60;59.00;;;;;;4988959;28;21142;-73
2022/07/27 01:04:54;;;;;;;2.30;1.20;;;17.50;59.70;;;;;;4989395;28;20456;-70
2022/07/27 01:07:22;;;;;;;2.60;1.20;;;17.40;59.60;;;;;;4988394;28;20640;-74
2022/07/27 01:09:58;;;;;;;3.38;1.50;;;17.40;59.10;;;;;;4989722;28;20766;-70
2022/07/27 01:12:26;;;;;;;3.60;1.45;;;17.40;59.80;;;;;;4989524;28;20926;-73
2022/07/27 01:14:55;;;;;;;4.13;1.50;;;17.40;60.20;;;;;;4989520;28;20533;-74
2022/07/27 01:17:22;;;;;;;4.07;2.00;;;17.30;60.30;;;;;;4989196;28;20507;-74
2022/07/27 01:19:51;;;;;;;2.92;1.40;;;17.30;60.20;;;;;;4989787;28;20414;-72
2022/07/27 01:22:19;;;;;;;3.20;1.30;;;17.30;60.70;;;;;;4987692;28;20593;-74
2022/07/27 01:24:46;;;;;;;3.10;1.70;;;17.30;60.50;;;;;;4989446;28;20422;-73
2022/07/27 01:27:12;;;;;;;4.07;1.50;;;17.20;61.00;;;;;;4989520;28;20578;-74
2022/07/27 01:29:40;;;;;;;3.92;1.20;;;17.20;61.50;;;;;;4989393;28;20428;-74
2022/07/27 01:32:07;;;;;;;2.83;1.20;;;17.20;61.20;;;;;;4987759;28;20473;-73
2022/07/27 01:34:34;;;;;;;3.90;1.60;;;17.20;62.50;;;;;;4989128;28;20466;-74
2022/07/27 01:37:01;;;;;;;3.10;1.50;;;17.20;61.60;;;;;;4987391;28;20429;-74
2022/07/27 01:39:30;;;;;;;2.63;1.20;;;17.20;62.10;;;;;;4989279;28;20414;-73
2022/07/27 01:41:58;;;;;;;1.80;1.10;;;17.20;62.60;;;;;;4988144;28;20424;-72
2022/07/27 01:44:25;;;;;;;4.93;1.70;;;17.20;62.60;;;;;;4971433;28;20795;-75
2022/07/27 01:46:52;;;;;;;2.90;1.40;;;17.20;62.40;;;;;;4969164;28;20916;-74
2022/07/27 01:49:19;;;;;;;2.78;1.30;;;17.10;63.10;;;;;;4970417;28;20433;-74
2022/07/27 01:51:46;;;;;;;2.60;1.10;;;17.10;63.20;;;;;;4967362;28;20511;-74
2022/07/27 01:54:12;;;;;;;4.85;1.50;;;17.10;63.00;;;;;;4969507;28;20427;-74
2022/07/27 01:56:41;;;;;;;4.30;1.70;;;17.00;63.10;;;;;;4984222;23;20917;-73
2022/07/27 01:59:07;;;;;;;2.90;1.30;;;17.00;63.50;;;;;;5012687;28;20447;-73
2022/07/27 02:01:34;;;;;;;3.55;1.38;;;17.00;63.70;;;;;;5022534;28;20415;-74
2022/07/27 02:04:01;;;;;;;3.10;1.48;;;16.90;63.80;;;;;;5026354;28;20450;-73
2022/07/27 02:06:28;;;;;;;2.20;1.30;;;16.90;63.50;;;;;;5025661;28;20450;-73
2022/07/27 02:08:54;;;;;;;2.70;1.20;;;16.90;63.80;;;;;;5026250;28;20427;-74
2022/07/27 02:14:07;;;;;;;2.20;1.10;;;16.70;64.70;;;;;;5029972;28;20498;-74
2022/07/27 02:16:34;;;;;;;3.60;1.30;;;16.70;64.60;;;;;;5029614;28;20435;-74
2022/07/27 02:19:01;;;;;;;3.00;1.40;;;16.70;64.70;;;;;;5030035;28;20499;-74
2022/07/27 02:21:27;;;;;;;2.88;1.60;;;16.70;64.90;;;;;;5028544;28;20518;-74
2022/07/27 02:23:54;;;;;;;3.35;1.50;;;16.70;64.20;;;;;;5029713;28;20750;-75
2022/07/27 02:26:21;;;;;;;3.05;1.40;;;16.60;64.80;;;;;;5029505;28;20422;-75
2022/07/27 02:28:48;;;;;;;2.95;1.40;;;16.50;64.90;;;;;;5029676;28;20905;-76
2022/07/27 02:31:16;;;;;;;4.13;1.33;;;16.50;66.00;;;;;;5028984;28;20418;-73
2022/07/27 02:33:42;;;;;;;4.90;1.63;;;16.40;65.40;;;;;;5029711;28;20498;-73
2022/07/27 02:36:10;;;;;;;3.30;1.45;;;16.40;65.80;;;;;;5028667;28;20447;-73
2022/07/27 02:38:37;;;;;;;2.72;1.30;;;16.40;66.00;;;;;;5029671;28;20450;-72
2022/07/27 02:41:04;;;;;;;3.60;1.40;;;16.40;65.60;;;;;;5028894;28;20427;-73
2022/07/27 02:43:30;;;;;;;2.83;1.50;;;16.40;65.90;;;;;;5007155;28;20441;-73
2022/07/27 02:45:57;;;;;;;3.22;1.30;;;16.30;65.80;;;;;;4989801;28;20521;-73
2022/07/27 02:48:25;;;;;;;3.75;1.50;;;16.20;66.10;;;;;;4990007;28;20750;-75
2022/07/27 02:50:52;;;;;;;3.38;1.40;;;16.20;66.70;;;;;;4988775;28;20433;-73
2022/07/27 02:53:19;;;;;;;2.95;1.33;;;16.20;66.80;;;;;;4990227;28;20550;-73
2022/07/27 02:55:46;;;;;;;2.58;1.30;;;16.10;66.30;;;;;;4989104;28;20434;-72
2022/07/27 02:58:13;;;;;;;2.38;1.27;;;16.10;66.80;;;;;;4989590;28;20418;-72
2022/07/27 03:00:39;;;;;;;2.70;1.30;;;16.10;66.70;;;;;;4988851;28;20433;-73
2022/07/27 03:03:06;;;;;;;3.10;1.60;;;16.10;66.50;;;;;;4989565;28;20901;-73
2022/07/27 03:05:34;;;;;;;2.97;1.40;;;16.10;66.80;;;;;;4989010;28;20429;-72
2022/07/27 03:08:02;;;;;;;3.03;1.67;;;16.10;67.00;;;;;;4989319;28;20422;-75
2022/07/27 03:10:29;;;;;;;3.25;1.60;;;16.10;67.00;;;;;;4988636;28;20501;-72
2022/07/27 03:12:56;;;;;;;3.97;1.40;;;16.10;67.10;;;;;;4989087;28;20406;-73
2022/07/27 03:15:23;;;;;;;5.43;1.40;;;16.00;67.30;;;;;;4989107;28;20804;-72
2022/07/27 03:17:50;;;;;;;2.85;1.20;;;16.00;67.50;;;;;;4989203;28;20430;-73
2022/07/27 03:20:17;;;;;;;2.20;1.23;;;16.00;69.00;;;;;;4990861;28;20557;-73
2022/07/27 03:22:45;;;;;;;2.57;1.20;;;16.00;68.00;;;;;;4989099;28;20959;-72
2022/07/27 03:25:12;;;;;;;4.05;1.52;;;16.00;67.90;;;;;;4989300;28;20440;-75
2022/07/27 03:27:39;;;;;;;2.90;1.60;;;15.90;68.10;;;;;;4989400;28;20418;-73
2022/07/27 03:30:07;;;;;;;2.53;1.60;;;15.90;68.50;;;;;;4988949;28;20450;-72
2022/07/27 03:32:34;;;;;;;3.27;1.40;;;15.90;68.40;;;;;;4989025;28;20438;-72
2022/07/27 03:35:00;;;;;;;2.20;1.50;;;15.90;68.60;;;;;;4988924;28;20438;-73
2022/07/27 03:37:27;;;;;;;3.50;1.83;;;15.80;68.60;;;;;;4988073;28;20422;-73
2022/07/27 03:39:55;;;;;;;3.42;1.63;;;15.80;69.10;;;;;;4988585;28;20422;-73
2022/07/27 03:42:22;;;;;;;2.78;1.58;;;15.70;69.20;;;;;;4988038;28;20415;-73
2022/07/27 03:44:50;;;;;;;4.38;1.77;;;15.70;69.40;;;;;;4988758;28;20422;-73
2022/07/27 03:47:17;;;;;;;3.70;1.70;;;15.70;69.70;;;;;;4988297;28;20414;-73
2022/07/27 03:49:44;;;;;;;3.47;1.75;;;15.70;70.10;;;;;;4988867;28;20425;-72
2022/07/27 03:52:11;;;;;;;4.00;1.60;;;15.60;70.30;;;;;;4987776;28;20520;-74
2022/07/27 03:54:37;;;;;;;3.80;1.60;;;15.60;71.00;;;;;;4988742;28;20422;-73
2022/07/27 03:57:06;;;;;;;2.50;1.63;;;15.60;71.00;;;;;;4988012;28;20433;-72
2022/07/27 03:59:32;;;;;;;3.60;1.92;;;15.50;70.60;;;;;;4988635;28;20424;-75
2022/07/27 04:01:59;;;;;;;2.70;1.90;;;15.50;71.00;;;;;;4987884;28;20426;-75
2022/07/27 04:04:26;;;;;;;3.42;1.50;;;15.50;71.40;;;;;;4988497;28;20453;-75
2022/07/27 04:06:52;;;;;;;3.90;1.98;;;15.50;71.50;;;;;;4987738;28;20428;-73
2022/07/27 04:09:19;;;;;;;3.70;2.00;;;15.50;71.60;;;;;;4988489;28;20417;-73
2022/07/27 04:11:46;;;;;;;3.40;1.55;;;15.50;71.70;;;;;;4987566;28;20430;-73
2022/07/27 04:14:15;;;;;;;3.30;2.20;;;15.40;72.00;;;;;;4988155;28;20525;-73
2022/07/27 04:16:41;;;;;;;3.88;1.80;;;15.40;72.10;;;;;;4987842;28;20453;-73
2022/07/27 04:19:08;;;;;;;3.10;1.95;;;15.40;71.80;;;;;;4988424;28;20414;-73
2022/07/27 04:21:35;;;;;;;4.70;2.20;;;15.40;72.50;;;;;;4987104;28;20462;-73
2022/07/27 04:24:02;;;;;;;6.70;2.38;;;15.40;72.10;;;;;;4988378;28;20434;-73
2022/07/27 04:26:29;;;;;;;3.15;1.85;;;15.40;72.30;;;;;;4988335;28;20818;-73
2022/07/27 04:28:56;;;;;;;3.38;2.10;;;15.30;72.50;;;;;;4988455;28;20441;-75
2022/07/27 04:31:24;;;;;;;4.00;1.92;;;15.30;72.80;;;;;;4987748;28;20422;-75
2022/07/27 04:33:51;;;;;;;5.20;2.10;;;15.30;72.50;;;;;;4987451;28;20418;-75
2022/07/27 04:36:18;;;;;;;2.67;1.85;;;15.30;72.40;;;;;;4987387;28;20936;-75
2022/07/27 04:38:45;;;;;;;5.80;2.35;;;15.30;72.50;;;;;;4988030;28;20414;-76
2022/07/27 04:41:11;;;;;;;4.23;2.50;;;15.30;72.60;;;;;;4987217;28;20477;-73
2022/07/27 04:43:38;;;;;;;4.00;2.40;;;15.30;72.60;;;;;;4987751;28;20529;-74
2022/07/27 04:46:05;;;;;;;3.22;2.53;;;15.30;72.90;;;;;;4987481;28;20857;-73
2022/07/27 04:48:34;;;;;;;3.35;2.30;;;15.30;72.60;;;;;;4987859;28;20421;-73
2022/07/27 04:51:01;;;;;;;5.47;2.30;;;15.30;72.70;;;;;;4986704;28;20430;-75
2022/07/27 04:53:28;;;;;;;4.60;2.42;;;15.30;73.10;;;;;;4987866;28;20444;-73
2022/07/27 04:55:55;;;;;;;3.25;2.33;;;15.30;73.40;;;;;;4987240;28;20434;-73
2022/07/27 04:58:22;;;;;;;3.92;2.70;;;15.40;73.70;;;;;;4987419;28;20437;-74
2022/07/27 05:00:49;;;;;;;3.20;2.60;;;15.40;72.80;;;;;;4986705;28;20428;-73
2022/07/27 05:03:15;;;;;;;4.88;2.42;;;15.40;72.70;;;;;;4987576;28;20444;-73
2022/07/27 05:05:43;;;;;;;4.20;2.50;;;15.40;72.70;;;;;;4986502;28;20422;-73
2022/07/27 05:08:10;;;;;;;4.63;2.50;;;15.40;72.80;;;;;;4987585;28;20414;-73
2022/07/27 05:10:37;;;;;;;2.78;2.10;;;15.30;72.70;;;;;;4986786;28;20418;-73
2022/07/27 05:13:04;;;;;;;5.15;2.35;;;15.30;73.70;;;;;;4987287;28;20428;-73
2022/07/27 05:15:31;;;;;;;5.47;2.30;;;15.30;73.30;;;;;;4986885;28;20908;-76
2022/07/27 05:17:57;;;;;;;4.00;2.20;;;15.30;73.00;;;;;;4987258;28;20734;-73
2022/07/27 05:20:25;;;;;;;4.07;2.13;;;15.40;73.60;;;;;;4986449;28;20869;-73
2022/07/27 05:22:53;;;;;;;3.22;1.88;;;15.40;73.50;;;;;;4986718;28;20453;-74
2022/07/27 05:25:20;;;;;;;3.22;2.20;;;15.50;73.00;;;;;;4987322;28;20422;-73
2022/07/27 05:27:47;;;;;;;3.60;2.20;;;15.50;72.60;;;;;;4986967;28;20508;-73
2022/07/27 05:30:14;;;;;;;3.45;2.45;;;15.50;72.30;;;;;;4987128;28;20448;-73
2022/07/27 05:32:41;;;;;;;4.03;2.17;;;15.50;72.10;;;;;;4987163;28;20418;-74
2022/07/27 05:35:09;;;;;;;3.35;2.00;;;15.50;72.70;;;;;;4987349;28;20446;-73
2022/07/27 05:37:36;;;;;;;5.03;2.45;;;15.50;72.60;;;;;;4986619;28;20452;-74
2022/07/27 05:40:07;;;;;;;5.18;2.80;;;15.50;72.60;;;;;;4986545;28;20880;-72
2022/07/27 05:42:33;;;;;;;3.90;2.20;;;15.50;72.60;;;;;;4986720;28;20453;-73
2022/07/27 05:45:00;;;;;;;3.88;2.75;;;15.60;72.70;;;;;;4987647;28;20418;-72
2022/07/27 05:47:27;;;;;;;4.90;2.63;;;15.60;72.80;;;;;;4990863;28;20849;-74
2022/07/27 05:49:54;;;;;;;4.38;2.45;;;15.60;72.50;;;;;;4990721;28;20444;-74
2022/07/27 05:52:21;;;;;;;5.00;2.50;;;15.60;72.50;;;;;;4990079;28;20427;-73
2022/07/27 05:54:47;;;;;;;6.10;2.60;;;15.70;72.80;;;;;;4990708;28;20425;-73
2022/07/27 05:57:16;;;;;;;4.18;2.60;;;15.70;72.90;;;;;;4990428;28;20726;-74
2022/07/27 05:59:42;;;;;;;5.00;3.00;;;15.70;72.60;;;;;;4991014;28;20422;-73
2022/07/27 06:02:09;;;;;;;2.97;2.53;;;15.80;72.40;;;;;;5007080;28;20428;-73
2022/07/27 06:04:36;;;;;;;5.70;2.88;;;15.80;71.90;;;;;;5010225;28;20428;-73
2022/07/27 06:09:52;;;;;;;4.32;2.60;;;15.70;72.50;;;;;;4994481;28;20506;-73
2022/07/27 06:12:20;;;;;;;3.70;2.50;;;15.70;73.10;;;;;;5010231;28;20417;-72
2022/07/27 06:14:47;;;;;;;3.70;2.58;;;15.70;73.40;;;;;;5011035;28;20500;-72
2022/07/27 06:17:14;;;;;;;3.10;2.63;;;15.80;72.40;;;;;;5010135;28;20437;-73
2022/07/27 06:19:41;;;;;;;5.40;2.80;;;15.90;72.30;;;;;;5010418;28;20428;-71
2022/07/27 06:22:08;;;;;;;5.18;2.75;;;16.00;71.90;;;;;;5008890;28;20963;-73
2022/07/27 06:24:35;;;;;;;3.92;2.85;;;16.10;71.00;;;;;;5009927;28;20416;-73
2022/07/27 06:27:01;;;;;;;3.72;2.40;;;16.10;71.00;;;;;;5009703;28;20451;-73
2022/07/27 06:29:30;;;;;;;4.82;2.70;;;16.10;71.70;;;;;;5009786;28;20512;-73
2022/07/27 06:31:56;;;;;;;3.60;2.50;;;16.20;72.30;;;;;;5009304;28;20431;-72
2022/07/27 06:34:23;;;;;;;4.80;3.20;;;16.30;71.80;;;;;;5009360;28;20421;-72
2022/07/27 06:36:51;;;;;;;6.45;3.28;;;16.40;71.20;;;;;;5008662;28;20433;-73
2022/07/27 06:39:19;;;;;;;4.15;2.47;;;16.50;71.10;;;;;;5009812;28;20420;-73
2022/07/27 06:41:46;;;;;;;3.90;2.00;;;16.60;69.80;;;;;;5009319;28;20420;-72
2022/07/27 06:44:12;;;;;;;4.80;2.33;;;16.70;69.70;;;;;;4992727;28;20431;-73
2022/07/27 06:46:41;;;;;;;4.90;2.20;;;16.80;69.00;;;;;;4989389;28;21013;-73
2022/07/27 06:49:08;;;;;;;5.60;2.22;;;17.00;69.70;;;;;;4989835;28;20852;-72
2022/07/27 06:51:34;;;;;;;4.68;2.17;;;17.20;68.30;;;;;;4988782;28;20444;-73
2022/07/27 06:54:01;;;;;;;4.55;2.00;;;17.40;66.80;;;;;;4989712;28;20804;-73
2022/07/27 06:56:28;;;;;;;3.92;2.28;;;17.60;65.30;;;;;;4988790;28;20546;-72
2022/07/27 06:58:55;;;;;;;5.53;2.70;;;17.80;64.60;;;;;;4989322;28;20432;-73
2022/07/27 07:01:22;;;;;;;3.60;2.50;;;17.90;63.40;;;;;;4989184;28;20484;-72
2022/07/27 07:03:50;;;;;;;2.35;1.77;;;18.00;63.50;;;;;;4989126;28;20761;-73
2022/07/27 07:06:17;;;;;;;3.80;1.80;;;18.10;61.20;;;;;;4989000;28;20511;-73
2022/07/27 07:08:44;;;;;;;3.70;2.20;;;18.10;60.40;;;;;;4989230;28;20422;-73
2022/07/27 07:11:11;;;;;;;2.92;2.10;;;18.10;59.90;;;;;;4988947;28;20425;-72
2022/07/27 07:13:37;;;;;;;3.67;1.90;;;18.10;59.90;;;;;;4989443;28;20544;-72
2022/07/27 07:16:05;;;;;;;2.65;1.30;;;18.20;59.40;;;;;;4989000;28;20434;-72
2022/07/27 07:18:32;;;;;;;3.70;1.67;;;18.40;58.70;;;;;;4989164;28;20517;-72
2022/07/27 07:21:00;;;;;;;3.97;1.58;;;18.40;57.70;;;;;;4988251;28;20428;-72
2022/07/27 07:23:27;;;;;;;3.88;1.80;;;18.40;58.40;;;;;;4989318;28;20516;-72
2022/07/27 07:25:53;;;;;;;4.65;1.60;;;18.40;58.30;;;;;;4989117;28;20787;-73
2022/07/27 07:28:21;;;;;;;3.15;1.60;;;18.50;57.90;;;;;;4989085;28;20765;-73
2022/07/27 07:30:47;;;;;;;4.65;1.60;;;18.70;57.00;;;;;;4988740;28;20480;-72
2022/07/27 07:33:14;;;;;;;5.47;1.50;;;18.90;56.50;;;;;;4989134;28;20908;-73
2022/07/27 07:35:42;;;;;;;4.20;1.60;;;19.00;55.50;;;;;;4988598;28;20422;-73
2022/07/27 07:38:10;;;;;;;4.13;1.42;;;19.20;55.10;;;;;;4988780;28;20438;-73
2022/07/27 07:40:37;;;;;;;2.30;1.70;;;19.50;55.10;;;;;;4988559;28;20422;-72
2022/07/27 07:43:05;;;;;;;2.40;1.80;;;19.70;53.60;;;;;;4988997;28;20462;-75
2022/07/27 07:45:36;;;;;;;2.58;1.50;;;19.90;53.20;;;;;;4988787;28;20425;-75
2022/07/27 07:48:04;;;;;;;2.33;1.48;;;20.10;51.80;;;;;;4988807;28;20422;-72
2022/07/27 07:50:31;;;;;;;1.75;1.10;;;20.30;50.20;;;;;;4988412;28;20419;-75
2022/07/27 07:52:59;;;;;;;2.90;1.40;;;20.50;49.30;;;;;;4988773;28;20726;-74
2022/07/27 07:55:28;;;;;;;3.25;1.23;;;20.70;48.70;;;;;;4988914;28;20548;-74
2022/07/27 07:57:56;;;;;;;3.95;1.70;;;20.80;48.20;;;;;;4988340;28;20430;-74
2022/07/27 08:00:24;;;;;;;4.40;1.60;;;21.00;48.30;;;;;;4988490;28;20414;-75
2022/07/27 08:02:52;;;;;;;4.30;1.60;;;21.10;48.70;;;;;;4988421;28;20418;-75
2022/07/27 08:05:20;;;;;;;2.95;1.60;;;21.30;47.80;;;;;;4988591;28;20418;-75
2022/07/27 08:07:48;;;;;;;3.03;1.60;;;21.50;46.00;;;;;;4988355;28;20524;-72
2022/07/27 08:10:17;;;;;;;2.47;1.58;;;21.60;46.30;;;;;;4987222;28;20421;-73
2022/07/27 08:12:47;;;;;;;2.40;1.20;;;21.70;45.70;;;;;;4988273;28;20415;-72
2022/07/27 08:15:15;;;;;;;3.80;1.40;;;21.80;44.90;;;;;;4988908;28;20521;-72
2022/07/27 08:17:42;;;;;;;2.50;1.35;;;21.90;45.50;;;;;;4988348;28;20466;-73
2022/07/27 08:20:11;;;;;;;3.20;1.20;;;22.00;44.80;;;;;;4988041;28;20461;-73
2022/07/27 08:22:38;;;;;;;1.40;0.90;;;22.20;44.20;;;;;;4988000;28;20422;-73
2022/07/27 08:25:06;;;;;;;3.30;1.33;;;22.40;42.70;;;;;;4988282;28;20912;-73
2022/07/27 08:27:32;;;;;;;4.38;1.50;;;22.60;42.80;;;;;;4988335;28;20430;-73
2022/07/27 08:30:01;;;;;;;2.83;1.50;;;22.80;43.10;;;;;;4987773;28;20418;-73
2022/07/27 08:32:28;;;;;;;2.10;1.10;;;22.80;42.10;;;;;;4988025;28;20498;-73
2022/07/27 08:34:55;;;;;;;3.45;1.30;;;22.50;43.30;;;;;;4988280;28;20452;-72
2022/07/27 08:37:22;;;;;;;6.68;1.80;;;22.20;43.60;;;;;;4987721;28;20452;-73
2022/07/27 08:39:49;;;;;;;7.25;2.40;;;22.10;43.60;;;;;;4988037;28;20414;-72
2022/07/27 08:42:17;;;;;;;4.20;2.20;;;22.00;43.60;;;;;;4987416;28;20454;-73
2022/07/27 08:44:45;;;;;;;3.30;1.40;;;21.90;44.80;;;;;;4988070;28;20425;-73
2022/07/27 08:47:15;;;;;;;4.07;1.20;;;21.80;44.50;;;;;;4987508;28;20963;-72
2022/07/27 08:49:43;;;;;;;2.20;1.20;;;21.70;43.00;;;;;;4988242;28;20421;-75
2022/07/27 08:52:11;;;;;;;2.30;1.00;;;21.90;42.80;;;;;;4986905;28;20429;-72
2022/07/27 08:54:40;;;;;;;1.83;0.90;;;22.30;41.30;;;;;;4988226;28;20454;-75
2022/07/27 08:57:07;;;;;;;2.50;1.10;;;22.70;41.50;;;;;;4987140;28;20442;-75
2022/07/27 08:59:34;;;;;;;1.92;0.98;;;22.90;40.80;;;;;;4987870;28;20422;-74
2022/07/27 09:02:01;;;;;;;2.60;1.50;;;23.10;40.40;;;;;;4987218;28;20445;-74
2022/07/27 09:04:30;;;;;;;2.55;1.10;;;23.30;40.00;;;;;;4987685;28;20471;-74
2022/07/27 09:06:57;;;;;;;2.85;1.20;;;23.60;39.50;;;;;;4987062;28;20494;-75
2022/07/27 09:09:24;;;;;;;2.00;0.90;;;24.00;38.50;;;;;;4989930;28;20419;-75
2022/07/27 09:12:05;;;;;;;2.10;0.90;;;24.30;38.80;;;;;;4987322;28;20442;-75
2022/07/27 09:14:33;;;;;;;2.55;1.00;;;24.50;37.60;;;;;;4987532;28;20484;-73
2022/07/27 09:17:18;;;;;;;2.70;1.00;;;24.80;37.30;;;;;;4987284;28;20441;-75
2022/07/27 09:19:55;;;;;;;2.60;0.73;;;25.00;36.90;;;;;;4987320;28;20570;-74
2022/07/27 09:22:41;;;;;;;4.05;1.10;;;25.40;36.50;;;;;;4986887;28;20419;-75
2022/07/27 09:25:08;;;;;;;1.80;0.90;;;25.60;35.80;;;;;;4987325;28;20429;-75
2022/07/27 09:27:36;;;;;;;3.08;0.70;;;25.70;35.80;;;;;;4987344;28;20433;-75
2022/07/27 09:30:06;;;;;;;3.00;0.80;;;25.80;34.60;;;;;;4986971;28;20765;-76
2022/07/27 09:32:33;;;;;;;4.97;1.10;;;25.70;34.90;;;;;;4987257;28;20427;-75
2022/07/27 09:35:15;;;;;;;2.80;1.00;;;25.20;35.20;;;;;;4987238;28;20556;-74
2022/07/27 09:37:42;;;;;;;2.50;1.50;;;24.60;36.70;;;;;;4986944;28;20437;-75
2022/07/27 09:40:13;;;;;;;4.90;2.05;;;24.30;37.10;;;;;;4986712;28;20434;-74
2022/07/27 09:42:40;;;;;;;4.03;1.80;;;23.90;37.70;;;;;;4987040;28;20849;-75
2022/07/27 09:45:29;;;;;;;1.80;0.80;;;23.60;38.40;;;;;;4986917;28;20802;-75
2022/07/27 09:48:11;;;;;;;3.00;0.70;;;23.30;38.90;;;;;;4987043;28;20414;-72
2022/07/27 09:50:41;;;;;;;2.85;1.20;;;23.00;39.80;;;;;;4986506;28;20972;-74
2022/07/27 09:53:13;;;;;;;3.78;1.10;;;22.80;39.70;;;;;;4986987;28;20434;-74
2022/07/27 09:55:41;;;;;;;2.00;1.10;;;22.60;40.80;;;;;;4986727;28;20429;-73
2022/07/27 09:58:08;;;;;;;3.15;1.10;;;22.50;40.80;;;;;;4986919;28;20988;-75
2022/07/27 10:00:35;;;;;;;2.85;1.23;;;22.30;41.50;;;;;;4986462;28;20777;-75
2022/07/27 10:03:02;;;;;;;3.30;1.50;;;22.20;42.40;;;;;;4986995;28;20829;-75
2022/07/27 10:05:29;;;;;;;3.70;1.20;;;22.20;42.90;;;;;;4987268;28;20440;-75
2022/07/27 10:07:57;;;;;;;5.10;1.30;;;22.20;41.80;;;;;;4986619;28;20418;-75
2022/07/27 10:10:24;;;;;;;2.42;1.20;;;22.20;42.00;;;;;;4986760;28;20425;-75
2022/07/27 10:12:51;;;;;;;3.27;1.07;;;22.30;42.20;;;;;;4987130;28;20434;-74
2022/07/27 10:15:18;;;;;;;2.40;1.00;;;22.30;40.60;;;;;;4987107;28;20425;-75
2022/07/27 10:17:46;;;;;;;1.67;1.02;;;22.30;41.10;;;;;;4987095;28;20433;-74
2022/07/27 10:20:16;;;;;;;2.70;1.10;;;22.40;38.80;;;;;;4986314;28;20422;-75
2022/07/27 10:22:52;;;;;;;1.83;1.30;;;22.50;38.70;;;;;;4986682;28;20797;-75
2022/07/27 10:25:21;;;;;;;2.30;1.20;;;22.60;39.50;;;;;;4986997;28;20424;-74
2022/07/27 10:27:49;;;;;;;3.17;1.35;;;22.70;40.00;;;;;;4986768;28;20425;-74
2022/07/27 10:30:17;;;;;;;2.60;1.10;;;22.80;40.00;;;;;;4986637;28;20426;-75
2022/07/27 10:32:45;;;;;;;2.80;1.30;;;22.90;39.50;;;;;;4988677;28;20441;-75
2022/07/27 10:35:34;;;;;;;2.00;1.00;;;22.80;39.50;;;;;;4990514;28;20429;-75
2022/07/27 10:38:09;;;;;;;1.85;1.20;;;22.70;39.90;;;;;;4989873;28;20450;-74
2022/07/27 10:40:38;;;;;;;4.00;1.40;;;22.70;37.40;;;;;;4990081;28;20429;-74
2022/07/27 10:43:10;;;;;;;2.30;0.90;;;22.60;37.80;;;;;;4990599;28;20450;-74
2022/07/27 10:45:43;;;;;;;2.67;1.25;;;22.50;38.60;;;;;;4989924;28;20472;-74
2022/07/27 10:48:37;;;;;;;2.00;1.10;;;22.50;39.20;;;;;;4990111;28;20428;-75
2022/07/27 10:51:05;;;;;;;1.70;0.90;;;22.70;38.70;;;;;;4989443;28;20456;-74
2022/07/27 10:53:34;;;;;;;3.30;1.20;;;22.70;39.20;;;;;;4990239;28;20881;-75
2022/07/27 10:56:03;;;;;;;1.80;1.10;;;22.70;40.00;;;;;;4989950;28;20897;-75
2022/07/27 10:58:46;;;;;;;2.58;1.30;;;22.80;40.10;;;;;;4989784;28;20502;-74
2022/07/27 11:01:14;;;;;;;2.17;1.40;;;22.90;37.50;;;;;;4989044;28;20444;-74
2022/07/27 11:03:46;;;;;;;2.10;1.20;;;22.90;38.20;;;;;;4989658;28;20697;-75
2022/07/27 11:06:26;;;;;;;2.00;1.20;;;23.00;39.10;;;;;;4989330;28;20526;-75
2022/07/27 11:08:53;;;;;;;1.80;1.13;;;23.40;37.90;;;;;;4989617;28;20517;-75
2022/07/27 11:11:23;;;;;;;1.50;1.10;;;23.80;36.90;;;;;;4988980;28;20883;-76
2022/07/27 11:13:52;;;;;;;2.45;0.98;;;24.10;36.80;;;;;;4989641;28;20517;-74
2022/07/27 11:16:19;;;;;;;4.10;1.30;;;24.40;35.80;;;;;;4992274;28;20426;-75
2022/07/27 11:18:54;;;;;;;1.90;1.00;;;24.60;35.10;;;;;;4992476;28;20506;-75
2022/07/27 11:21:24;;;;;;;2.80;1.10;;;24.80;33.20;;;;;;4988506;28;20449;-76
2022/07/27 11:23:52;;;;;;;2.95;1.10;;;25.10;34.50;;;;;;4989505;28;20426;-76
2022/07/27 11:26:20;;;;;;;2.72;1.27;;;25.20;33.90;;;;;;4989102;28;20789;-75
2022/07/27 11:28:48;;;;;;;2.58;1.65;;;25.10;32.70;;;;;;4989451;28;20884;-74
2022/07/27 11:31:15;;;;;;;2.30;1.30;;;24.70;33.60;;;;;;4988674;28;20418;-74
2022/07/27 11:33:54;;;;;;;2.20;1.30;;;24.40;32.80;;;;;;4989122;28;20437;-75
2022/07/27 11:36:21;;;;;;;1.83;1.30;;;24.10;35.40;;;;;;4988670;28;20422;-74
2022/07/27 11:38:51;;;;;;;2.65;1.30;;;23.80;35.00;;;;;;4989340;28;20860;-74
2022/07/27 11:41:23;;;;;;;1.50;1.20;;;23.80;35.60;;;;;;4988640;28;20848;-75
2022/07/27 11:43:52;;;;;;;2.33;1.25;;;23.70;34.10;;;;;;4988728;28;20506;-75
2022/07/27 11:46:22;;;;;;;8.00;1.80;;;23.70;35.00;;;;;;4988779;28;20425;-74
2022/07/27 11:48:51;;;;;;;4.57;1.80;;;23.70;35.70;;;;;;4988956;28;20577;-75
2022/07/27 11:51:19;;;;;;;2.63;1.25;;;23.80;35.60;;;;;;4988125;28;20901;-75
2022/07/27 11:53:46;;;;;;;3.97;1.15;;;23.90;36.30;;;;;;4988859;28;20430;-75
2022/07/27 11:56:20;;;;;;;2.20;1.00;;;24.00;35.50;;;;;;4988772;28;20434;-75
2022/07/27 11:59:04;;;;;;;2.77;1.50;;;24.30;36.80;;;;;;4988992;28;20955;-76
2022/07/27 12:01:33;;;;;;;2.40;1.10;;;24.90;35.90;;;;;;4988447;28;20429;-76
2022/07/27 12:04:09;;;;;;;2.00;1.50;;;25.00;35.70;;;;;;4988742;28;20888;-75
2022/07/27 12:06:37;;;;;;;2.05;1.50;;;25.00;35.40;;;;;;4988344;28;20426;-75
2022/07/27 12:09:06;;;;;;;2.57;1.80;;;24.80;34.70;;;;;;4988843;28;20500;-74
2022/07/27 12:11:50;;;;;;;3.47;1.60;;;24.70;35.00;;;;;;4987907;28;20426;-76
2022/07/27 12:14:19;;;;;;;2.28;1.40;;;24.50;35.00;;;;;;4988785;28;20510;-73
2022/07/27 12:16:46;;;;;;;2.47;1.65;;;24.30;35.50;;;;;;4988014;28;20432;-75
2022/07/27 12:19:21;;;;;;;2.58;2.10;;;24.40;34.90;;;;;;4988820;28;20516;-74
2022/07/27 12:21:51;;;;;;;6.47;2.10;;;24.40;35.50;;;;;;4987325;28;20434;-73
2022/07/27 12:24:18;;;;;;;2.47;1.67;;;24.20;36.00;;;;;;4988077;28;20420;-73
2022/07/27 12:27:01;;;;;;;2.40;1.50;;;24.10;36.60;;;;;;4988125;28;20546;-74
2022/07/27 12:29:29;;;;;;;2.90;1.80;;;24.10;35.80;;;;;;4988417;28;20426;-73
2022/07/27 12:32:02;;;;;;;2.00;1.83;;;23.90;36.10;;;;;;4987731;28;20516;-73
2022/07/27 12:34:33;;;;;;;2.60;1.50;;;24.20;35.60;;;;;;4988244;28;20840;-73
2022/07/27 12:37:00;;;;;;;2.70;1.60;;;24.50;34.60;;;;;;4987425;28;20426;-74
2022/07/27 12:39:27;;;;;;;2.70;1.60;;;24.50;35.10;;;;;;4988244;28;20471;-74
2022/07/27 12:42:03;;;;;;;3.22;1.65;;;24.50;35.40;;;;;;4987465;28;20453;-74
2022/07/27 12:44:34;;;;;;;3.08;1.83;;;24.50;34.30;;;;;;4987764;28;20924;-73
2022/07/27 12:47:39;;;;;;;3.07;1.70;;;24.40;35.20;;;;;;4987834;28;20422;-73
2022/07/27 12:50:01;;;;;;;3.20;1.60;;;24.40;34.50;;;;;;4987578;28;20419;-74
2022/07/27 12:52:27;;;;;;;2.28;1.45;;;24.30;34.50;;;;;;4987927;28;20428;-74
2022/07/27 12:54:55;;;;;;;2.78;1.55;;;24.60;33.40;;;;;;4987360;28;20459;-73
2022/07/27 12:57:22;;;;;;;3.25;1.50;;;24.90;33.60;;;;;;4989136;28;20424;-74
2022/07/27 12:59:50;;;;;;;2.08;1.60;;;25.20;33.00;;;;;;4987940;28;20808;-73